Thursday, March 5, 2015, 3:11 PM EST

KPTB, Petersburg, Dinwiddie County Airport

Location: Petersburg, VA, United States Lat: 37.183
Local Time: 3:11 PM EST (20:11 GMT) Lon: -77.517
Time Zone: US/Eastern Elev: 193 ft

Show me the last for .
Show Decoded

2015-03-05 14:35 METAR KPTB 051935Z AUTO 01006KT 2 1/2SM -RA OVC007 01/01 A3012 RMK AO2 P0005
                 T00130010 =
2015-03-05 14:15 METAR KPTB 051915Z AUTO 01008KT 3SM -RA BKN007 BKN017 OVC060 01/01 A3014 RMK AO2
                 P0001 T00120007 =
2015-03-05 13:55 METAR KPTB 051855Z AUTO 36010KT 1 1/2SM -RA OVC007 02/01 A3016 RMK AO2 P0007
                 T00150010 =
2015-03-05 13:35 METAR KPTB 051835Z AUTO 36010KT 1 1/2SM -SN OVC007 02/01 A3015 RMK AO2 P0006
                 T00160010 =
2015-03-05 13:15 METAR KPTB 051815Z AUTO 35012G17KT 1 1/2SM -RA OVC007 02/02 A3014 RMK AO2 P0004
                 T00240017 =
2015-03-05 12:55 METAR KPTB 051755Z AUTO 01011G15KT 7SM -RA OVC007 03/02 A3010 RMK AO2 P0003
                 60033 T00250019 10047 20022 =
2015-03-05 12:35 METAR KPTB 051735Z AUTO 04013G19KT 4SM -RA OVC007 02/02 A3008 RMK AO2 P0003
                 T00240018 =
2015-03-05 12:15 METAR KPTB 051715Z AUTO 03012G22KT 2SM -RA OVC005 02/02 A3010 RMK AO2 P0002
                 T00220017 =
2015-03-05 10:55 METAR KPTB 051555Z AUTO 03010G17KT 7SM -RA OVC007 04/03 A3007 RMK AO2 P0011
                 T00370031 =
2015-03-05 10:35 METAR KPTB 051535Z AUTO 02009G16KT 2SM -RA OVC007 04/03 A3008 RMK AO2 P0007
                 T00350030 =
2015-03-05 10:15 METAR KPTB 051515Z AUTO 02011G16KT 4SM -RA OVC007 04/03 A3006 RMK AO2 P0002
                 T00350029 =
2015-03-05 09:55 METAR KPTB 051455Z AUTO 02010G16KT 4SM -RA OVC007 04/03 A3008 RMK AO2 P0002
                 60007 T00350028 =
2015-03-05 09:35 METAR KPTB 051435Z AUTO 36009KT 4SM -RA OVC007 04/03 A3008 RMK AO2 P0001
                 T00350028 =
2015-03-05 09:15 METAR KPTB 051415Z AUTO 36010G15KT 4SM -RA BKN009 BKN012 OVC028 04/03 A3008 RMK
                 AO2 P0001 T00350027 =
2015-03-05 08:55 METAR KPTB 051355Z AUTO 01013G21KT 2 1/2SM RA BKN009 BKN018 OVC028 04/03 A3007
                 RMK AO2 P0001 T00370027 =
2015-03-05 08:35 METAR KPTB 051335Z AUTO 02014G26KT 7SM BKN008 BKN019 OVC023 04/03 A3007 RMK AO2
                 P0001 T00410029 =
2015-03-05 08:15 METAR KPTB 051315Z AUTO 02013G18KT 10SM OVC008 05/04 A3004 RMK AO2 P0001
                 T00450035 =
2015-03-05 07:55 METAR KPTB 051255Z AUTO 03012G18KT 7SM -RA OVC008 05/04 A3003 RMK AO2 P0003
                 T00450037 =
2015-03-05 07:35 METAR KPTB 051235Z AUTO 02013G19KT 4SM BR OVC008 05/04 A3004 RMK AO2 P0003
                 T00450036 =
2015-03-05 07:15 METAR KPTB 051215Z AUTO 01009G19KT 3SM -RA OVC006 05/04 A3004 RMK AO2 P0003
                 T00460040 =
2015-03-05 06:55 METAR KPTB 051155Z AUTO 02016G24KT 3SM -RA BKN006 OVC009 05/04 A3001 RMK AO2
                 P0003 60017 70017 T00480041 10126 20048 =
2015-03-05 06:35 METAR KPTB 051135Z AUTO 02009KT 5SM -RA OVC006 05/05 A3000 RMK AO2 P0002
                 T00530047 =
2015-03-05 06:15 METAR KPTB 051115Z AUTO 02014G21KT 5SM -RA OVC006 06/05 A3000 RMK AO2 T00560049
                 =
2015-03-05 05:55 METAR KPTB 051055Z AUTO 05012G17KT 4SM BR OVC006 06/05 A2998 RMK AO2 P0004
                 T00620054 =
2015-03-05 05:35 METAR KPTB 051035Z AUTO 02015G21KT 5SM -RA BKN006 BKN013 OVC025 07/06 A2998 RMK
                 AO2 P0003 T00680059 =
2015-03-05 05:15 METAR KPTB 051015Z AUTO 03014G19KT 5SM -DZ BKN006 OVC013 08/07 A2997 RMK AO2
                 P0001 T00760067 =
2015-03-05 04:55 METAR KPTB 050955Z AUTO 03013G17KT 7SM -RA BKN008 OVC013 08/07 A2996 RMK AO2
                 P0002 T00800070 =
2015-03-05 04:35 METAR KPTB 050935Z AUTO 03012KT 7SM -DZ OVC006 09/08 A2994 RMK AO2 P0001
                 T00880080 =
2015-03-05 04:15 METAR KPTB 050915Z AUTO 03012G16KT 10SM -RA OVC006 09/08 A2993 RMK AO2 T00910083
                 =
2015-03-05 03:55 METAR KPTB 050855Z AUTO 02009KT 7SM -RA BKN004 OVC009 10/09 A2992 RMK AO2 P0006
                 60006 T00980090 =
2015-03-05 03:35 METAR KPTB 050835Z AUTO 03011KT 7SM -RA SCT004 BKN009 OVC013 11/10 A2991 RMK AO2
                 P0006 T01050097 =
2015-03-05 03:15 METAR KPTB 050815Z AUTO 04008KT 3SM RA OVC004 12/12 A2990 RMK AO2 P0004
                 T01200115 =
2015-03-05 02:55 METAR KPTB 050755Z AUTO 03006KT 4SM BR OVC004 12/12 A2990 RMK AO2 T01210115 =
2015-03-05 02:35 METAR KPTB 050735Z AUTO 02005KT 4SM -RA OVC004 12/12 A2990 RMK AO2 T01220116 =
2015-03-05 02:15 METAR KPTB 050715Z AUTO 00000KT 5SM BR OVC004 12/12 A2992 RMK AO2 T01220116 =
2015-03-05 01:55 METAR KPTB 050655Z AUTO 05004KT 5SM -RA OVC004 12/12 A2992 RMK AO2 T01240116 =
2015-03-05 01:35 METAR KPTB 050635Z AUTO 02003KT 7SM SCT006 BKN029 OVC037 13/12 A2992 RMK AO2
                 T01250118 =
2015-03-05 01:15 METAR KPTB 050615Z AUTO 31005KT 7SM BKN027 OVC039 13/12 A2992 RMK AO2 T01250117
                 =
2015-03-05 00:55 METAR KPTB 050555Z AUTO 04004KT 7SM SCT025 OVC036 13/12 A2991 RMK AO2 T01250117
                 10157 20123 =
2015-03-05 00:35 METAR KPTB 050535Z AUTO 34003KT 7SM -RA OVC036 13/12 A2992 RMK AO2 T01250116 =
2015-03-05 00:15 METAR KPTB 050515Z AUTO 00000KT 7SM BKN036 OVC043 13/12 A2991 RMK AO2 T01250115
                 =
2015-03-04 23:55 METAR KPTB 050455Z AUTO 28003KT 10SM -DZ SCT020 OVC038 13/12 A2992 RMK AO2
                 T01270116 401970048 =
2015-03-04 23:35 METAR KPTB 050435Z AUTO 02003KT 10SM -RA SCT035 OVC042 13/12 A2991 RMK AO2
                 T01300118 =
2015-03-04 23:15 METAR KPTB 050415Z AUTO 00000KT 10SM -RA BKN036 OVC044 13/12 A2992 RMK AO2
                 T01320117 =
2015-03-04 22:55 METAR KPTB 050355Z AUTO 08004KT 10SM -RA BKN042 BKN050 OVC070 13/12 A2990 RMK
                 AO2 T01320116 =
2015-03-04 22:35 METAR KPTB 050335Z AUTO 33006KT 10SM BKN042 OVC048 13/12 A2992 RMK AO2 T01280115
                 =
2015-03-04 22:15 METAR KPTB 050315Z AUTO 00000KT 10SM OVC043 13/12 A2990 RMK AO2 T01310115 =
2015-03-04 20:55 METAR KPTB 050155Z AUTO 00000KT 10SM OVC046 14/12 A2991 RMK AO2 T01400115 =
2015-03-04 20:35 METAR KPTB 050135Z AUTO 01004KT 10SM -DZ BKN042 OVC050 14/12 A2990 RMK AO2
                 T01400115 =
2015-03-04 20:15 METAR KPTB 050115Z AUTO 02004KT 10SM BKN044 OVC055 14/12 A2989 RMK AO2 T01430115
                 =
2015-03-04 19:55 METAR KPTB 050055Z AUTO 04007KT 10SM OVC046 15/12 A2989 RMK AO2 T01470115 =
2015-03-04 19:35 METAR KPTB 050035Z AUTO 02006KT 10SM BKN048 OVC065 15/12 A2988 RMK AO2 T01500115
                 =
2015-03-04 19:15 METAR KPTB 050015Z AUTO 01005KT 10SM BKN050 OVC065 15/12 A2987 RMK AO2 T01520117
                 =
2015-03-04 18:55 METAR KPTB 042355Z AUTO 02007KT 10SM SCT048 OVC055 16/12 A2987 RMK AO2 T01570120
                 10197 20140 =
2015-03-04 18:35 METAR KPTB 042335Z AUTO 02008KT 10SM SCT048 OVC055 16/12 A2987 RMK AO2 T01620120
                 =
2015-03-04 18:15 METAR KPTB 042315Z AUTO 01005KT 10SM BKN045 OVC055 16/12 A2987 RMK AO2 T01630123
                 =
2015-03-04 17:55 METAR KPTB 042255Z AUTO 02003KT 10SM OVC045 17/13 A2987 RMK AO2 T01680125 =
2015-03-04 17:35 METAR KPTB 042235Z AUTO 00000KT 10SM OVC045 17/12 A2986 RMK AO2 T01730123 =
2015-03-04 17:15 METAR KPTB 042215Z AUTO 02003KT 10SM BKN047 OVC050 18/13 A2987 RMK AO2 T01760125
                 =
2015-03-04 16:55 METAR KPTB 042155Z AUTO 33004KT 10SM OVC050 18/13 A2987 RMK AO2 T01800126 =
2015-03-04 16:15 METAR KPTB 042115Z AUTO 34005KT 10SM SCT050 19/13 A2987 RMK AO2 T01900128 =
2015-03-04 15:55 METAR KPTB 042055Z AUTO 34003KT 10SM SCT050 19/13 A2987 RMK AO2 T01930128 =
2015-03-04 15:35 METAR KPTB 042035Z AUTO 26004KT 10SM SCT050 19/13 A2987 RMK AO2 T01930131 =
2015-03-04 15:15 METAR KPTB 042015Z AUTO 28006KT 10SM CLR 19/13 A2987 RMK AO2 T01920130 =

Support USWX by starting your Amazon purchase here.